createdAt,value
2018-08-09T00:00:32.792Z,10.77
2018-08-09T00:03:01.341Z,11.57
2018-08-09T00:05:29.956Z,10.50
2018-08-09T00:07:58.462Z,10.80
2018-08-09T00:10:27.073Z,10.50
2018-08-09T00:12:55.625Z,16.47
2018-08-09T00:15:24.214Z,13.73
2018-08-09T00:17:53.258Z,10.97
2018-08-09T00:20:21.806Z,10.83
2018-08-09T00:22:50.665Z,11.27
2018-08-09T00:25:19.381Z,12.70
2018-08-09T00:27:48.030Z,10.80
2018-08-09T00:30:16.649Z,11.10
2018-08-09T00:32:45.165Z,10.30
2018-08-09T00:35:13.725Z,10.43
2018-08-09T00:37:42.776Z,10.60
2018-08-09T00:40:11.304Z,11.30
2018-08-09T00:42:39.874Z,11.97
2018-08-09T00:45:08.425Z,10.87
2018-08-09T00:47:36.947Z,11.93
2018-08-09T00:50:05.584Z,11.20
2018-08-09T00:52:34.108Z,11.03
2018-08-09T00:55:02.687Z,10.10
2018-08-09T00:57:31.221Z,10.70
2018-08-09T00:59:59.994Z,11.00
2018-08-09T01:02:28.559Z,11.03
2018-08-09T01:04:57.091Z,11.60
2018-08-09T01:07:25.604Z,10.03
2018-08-09T01:09:54.177Z,10.47
2018-08-09T01:12:22.732Z,11.30
2018-08-09T01:14:51.277Z,11.10
2018-08-09T01:17:19.784Z,11.23
2018-08-09T01:19:48.334Z,12.17
2018-08-09T01:22:16.844Z,11.60
2018-08-09T01:24:45.480Z,13.13
2018-08-09T01:27:14.013Z,11.60
2018-08-09T01:29:42.576Z,12.73
2018-08-09T01:32:11.145Z,11.60
2018-08-09T01:34:39.702Z,12.10
2018-08-09T01:37:08.232Z,12.13
2018-08-09T01:39:36.786Z,12.30
2018-08-09T01:42:16.606Z,12.70
2018-08-09T01:44:45.146Z,12.33
2018-08-09T01:47:13.652Z,10.73
2018-08-09T01:49:42.195Z,11.90
2018-08-09T01:52:10.731Z,12.57
2018-08-09T01:54:39.277Z,10.97
2018-08-09T01:57:07.817Z,11.47
2018-08-09T01:59:36.375Z,12.23
2018-08-09T02:02:04.937Z,11.93
2018-08-09T02:04:33.494Z,12.67
2018-08-09T02:07:02.064Z,12.60
2018-08-09T02:09:34.556Z,12.37
2018-08-09T02:12:04.285Z,12.90
2018-08-09T02:14:33.041Z,13.13
2018-08-09T02:17:01.963Z,13.20
2018-08-09T02:19:30.822Z,12.40
2018-08-09T02:21:59.372Z,13.50
2018-08-09T02:24:27.898Z,12.40
2018-08-09T02:26:56.447Z,12.07
2018-08-09T02:29:24.961Z,13.30
2018-08-09T02:31:53.509Z,12.47
2018-08-09T02:34:22.031Z,12.03
2018-08-09T02:36:50.585Z,12.37
2018-08-09T02:39:19.180Z,12.50
2018-08-09T02:41:47.746Z,12.27
2018-08-09T02:44:16.269Z,13.20
2018-08-09T02:46:44.923Z,13.40
2018-08-09T02:49:13.413Z,13.23
2018-08-09T02:51:41.960Z,13.17
2018-08-09T02:54:10.476Z,12.90
2018-08-09T02:56:39.046Z,13.10
2018-08-09T02:59:07.565Z,12.93
2018-08-09T03:01:36.185Z,13.30
2018-08-09T03:04:04.720Z,13.57
2018-08-09T03:06:34.331Z,14.90
2018-08-09T03:09:02.990Z,12.10
2018-08-09T03:11:31.550Z,13.33
2018-08-09T03:14:00.081Z,12.60
2018-08-09T03:16:28.633Z,13.00
2018-08-09T03:18:58.648Z,13.43
2018-08-09T03:21:27.241Z,12.10
2018-08-09T03:23:55.784Z,12.43
2018-08-09T03:26:24.315Z,13.23
2018-08-09T03:28:52.842Z,13.70
2018-08-09T03:31:21.397Z,13.67
2018-08-09T03:33:49.920Z,13.40
2018-08-09T03:36:19.014Z,13.03
2018-08-09T03:38:49.889Z,12.40
2018-08-09T03:41:18.442Z,13.17
2018-08-09T03:43:47.399Z,12.90
2018-08-09T03:46:15.954Z,14.00
2018-08-09T03:48:44.491Z,13.93
2018-08-09T03:51:13.031Z,14.27
2018-08-09T03:53:41.552Z,13.03
2018-08-09T03:56:10.100Z,13.57
2018-08-09T03:58:38.629Z,13.70
2018-08-09T04:01:07.268Z,14.60
2018-08-09T04:03:35.784Z,15.23
2018-08-09T04:06:04.356Z,14.23
2018-08-09T04:08:33.369Z,13.10
2018-08-09T04:11:01.876Z,13.73
2018-08-09T04:13:30.421Z,14.10
2018-08-09T04:15:58.945Z,14.63
2018-08-09T04:18:27.479Z,14.30
2018-08-09T04:20:56.015Z,14.37
2018-08-09T04:23:24.572Z,14.30
2018-08-09T04:25:53.208Z,15.27
2018-08-09T04:28:23.988Z,13.93
2018-08-09T04:30:53.407Z,14.57
2018-08-09T04:33:22.445Z,15.07
2018-08-09T04:35:58.577Z,13.33
2018-08-09T04:38:27.688Z,13.73
2018-08-09T04:40:56.895Z,15.30
2018-08-09T04:43:25.451Z,13.73
2018-08-09T04:45:54.005Z,14.23
2018-08-09T04:48:22.546Z,14.07
2018-08-09T04:50:51.086Z,13.70
2018-08-09T04:53:19.620Z,15.80
2018-08-09T04:55:48.168Z,15.17
2018-08-09T04:58:16.731Z,14.97
2018-08-09T05:00:45.303Z,14.70
2018-08-09T05:03:13.849Z,14.60
2018-08-09T05:05:42.634Z,14.37
2018-08-09T05:08:11.174Z,13.60
2018-08-09T05:10:39.717Z,15.80
2018-08-09T05:13:08.273Z,14.97
2018-08-09T05:15:36.792Z,15.80
2018-08-09T05:18:05.367Z,15.70
2018-08-09T05:20:33.872Z,15.90
2018-08-09T05:23:02.476Z,16.40
2018-08-09T05:25:30.996Z,15.97
2018-08-09T05:27:59.584Z,16.40
2018-08-09T05:30:28.112Z,15.43
2018-08-09T05:32:56.678Z,18.20
2018-08-09T05:35:27.797Z,15.50
2018-08-09T05:37:56.374Z,16.10
2018-08-09T05:40:24.876Z,14.47
2018-08-09T05:42:53.468Z,15.77
2018-08-09T05:45:24.364Z,15.70
2018-08-09T05:47:52.914Z,16.73
2018-08-09T05:50:21.441Z,14.70
2018-08-09T05:52:50.047Z,17.20
2018-08-09T05:55:18.533Z,15.27
2018-08-09T05:57:47.069Z,16.40
2018-08-09T06:00:17.180Z,16.70
2018-08-09T06:02:46.449Z,16.80
2018-08-09T06:05:14.971Z,17.03
2018-08-09T06:07:43.505Z,15.90
2018-08-09T06:10:12.035Z,17.03
2018-08-09T06:12:40.568Z,17.20
2018-08-09T06:15:09.996Z,14.93
2018-08-09T06:17:38.543Z,15.73
2018-08-09T06:20:07.872Z,16.30
2018-08-09T06:22:37.306Z,17.90
2018-08-09T06:25:08.202Z,16.40
2018-08-09T06:27:38.362Z,17.47
2018-08-09T06:30:09.716Z,18.70
2018-08-09T06:32:39.224Z,15.83
2018-08-09T06:35:10.334Z,15.83
2018-08-09T06:37:38.981Z,15.73
2018-08-09T06:40:10.831Z,15.30
2018-08-09T06:42:39.428Z,14.90
2018-08-09T06:45:07.990Z,16.70
2018-08-09T06:47:36.919Z,15.47
2018-08-09T06:50:06.362Z,16.13
2018-08-09T06:52:34.871Z,16.37
2018-08-09T06:55:03.796Z,14.30
2018-08-09T06:57:32.403Z,15.50
2018-08-09T07:00:01.173Z,16.10
2018-08-09T07:02:29.752Z,14.80
2018-08-09T07:04:58.338Z,15.17
2018-08-09T07:07:26.979Z,15.20
2018-08-09T07:09:55.720Z,15.37
2018-08-09T07:12:24.282Z,14.70
2018-08-09T07:14:52.895Z,14.40
2018-08-09T07:17:21.542Z,14.67
2018-08-09T07:19:50.139Z,13.50
2018-08-09T07:22:18.894Z,16.03
2018-08-09T07:24:47.523Z,15.00
2018-08-09T07:27:17.491Z,13.60
2018-08-09T07:29:46.050Z,13.60
2018-08-09T07:32:14.696Z,12.50
2018-08-09T07:34:43.224Z,14.33
2018-08-09T07:37:11.740Z,12.63
2018-08-09T07:39:40.358Z,14.30
2018-08-09T07:42:08.907Z,12.90
2018-08-09T07:44:37.444Z,13.23
2018-08-09T07:47:05.687Z,12.73
2018-08-09T07:49:34.296Z,12.63
2018-08-09T07:52:02.825Z,13.77
2018-08-09T07:54:31.357Z,13.40
2018-08-09T07:56:59.940Z,13.90
2018-08-09T07:59:28.477Z,12.30
2018-08-09T08:01:58.999Z,12.63
2018-08-09T08:04:27.609Z,11.13
2018-08-09T08:06:56.125Z,11.80
2018-08-09T08:09:24.396Z,12.33
2018-08-09T08:11:52.903Z,11.90
2018-08-09T08:14:21.123Z,11.93
2018-08-09T08:16:50.243Z,11.87
2018-08-09T08:19:18.794Z,12.17
2018-08-09T08:21:47.312Z,11.23
2018-08-09T08:24:15.843Z,12.50
2018-08-09T08:26:44.416Z,11.90
2018-08-09T08:29:13.103Z,13.70
2018-08-09T08:31:41.636Z,12.30
2018-08-09T08:34:10.206Z,13.37
2018-08-09T08:36:38.807Z,12.40
2018-08-09T08:39:09.275Z,13.33
2018-08-09T08:41:38.140Z,12.20
2018-08-09T08:44:06.874Z,12.57
2018-08-09T08:46:35.443Z,12.93
2018-08-09T08:49:04.165Z,12.77
2018-08-09T08:51:32.696Z,13.30
2018-08-09T08:54:01.284Z,13.10
2018-08-09T08:56:29.826Z,12.60
2018-08-09T08:58:58.365Z,13.10
2018-08-09T09:01:27.903Z,12.10
2018-08-09T09:03:56.451Z,12.70
2018-08-09T09:06:25.384Z,12.50
2018-08-09T09:08:53.892Z,11.87
2018-08-09T09:11:22.434Z,12.80
2018-08-09T09:13:51.129Z,12.33
2018-08-09T09:16:19.643Z,13.60
2018-08-09T09:18:48.352Z,11.50
2018-08-09T09:21:17.061Z,11.50
2018-08-09T09:23:45.829Z,11.97
2018-08-09T09:26:15.272Z,12.73
2018-08-09T09:28:43.990Z,11.70
2018-08-09T09:31:12.687Z,11.50
2018-08-09T09:33:41.430Z,11.83
2018-08-09T09:36:10.233Z,13.17
2018-08-09T09:38:38.930Z,12.77
2018-08-09T09:41:07.660Z,13.17
2018-08-09T09:43:36.336Z,11.30
2018-08-09T09:46:05.067Z,11.10
2018-08-09T09:48:34.862Z,11.90
2018-08-09T09:51:05.103Z,12.27
2018-08-09T09:53:35.404Z,13.30
2018-08-09T09:56:04.269Z,13.10
2018-08-09T09:58:32.921Z,12.10
2018-08-09T10:01:07.135Z,12.07
2018-08-09T10:03:35.813Z,11.80
2018-08-09T10:06:05.178Z,12.00
2018-08-09T10:08:33.553Z,11.77
2018-08-09T10:11:02.096Z,11.97
2018-08-09T10:13:30.658Z,12.00
2018-08-09T10:15:59.199Z,12.07
2018-08-09T10:18:28.084Z,11.10
2018-08-09T10:20:56.792Z,10.87
2018-08-09T10:23:25.307Z,11.77
2018-08-09T10:25:53.875Z,11.50
2018-08-09T10:28:22.453Z,11.73
2018-08-09T10:30:51.041Z,10.90
2018-08-09T10:33:19.593Z,11.90
2018-08-09T10:35:48.155Z,11.80
2018-08-09T10:38:16.725Z,11.23
2018-08-09T10:40:45.288Z,11.93
2018-08-09T10:43:13.816Z,11.17
2018-08-09T10:45:42.375Z,10.20
2018-08-09T10:48:10.888Z,10.27
2018-08-09T10:50:39.431Z,11.10
2018-08-09T10:53:07.995Z,10.30
2018-08-09T10:55:36.550Z,11.37
2018-08-09T10:58:05.983Z,10.77
2018-08-09T11:00:34.952Z,10.60
2018-08-09T11:03:03.497Z,10.97
2018-08-09T11:05:32.062Z,10.60
2018-08-09T11:08:00.612Z,9.47
2018-08-09T11:10:29.189Z,10.80
2018-08-09T11:12:57.702Z,9.67
2018-08-09T11:15:26.963Z,11.80
2018-08-09T11:17:55.538Z,12.03
2018-08-09T11:20:24.074Z,11.00
2018-08-09T11:22:52.634Z,11.47
2018-08-09T11:25:21.140Z,11.00
2018-08-09T11:27:49.685Z,11.00
2018-08-09T11:30:18.240Z,11.40
2018-08-09T11:32:46.813Z,10.27
2018-08-09T11:35:15.342Z,9.57
2018-08-09T11:37:43.896Z,9.33
2018-08-09T11:40:12.451Z,9.35
2018-08-09T11:42:41.008Z,9.38
2018-08-09T11:45:09.556Z,9.50
2018-08-09T11:47:38.136Z,9.23
2018-08-09T11:50:07.022Z,9.10
2018-08-09T11:52:35.570Z,9.00
2018-08-09T11:55:04.394Z,8.97
2018-08-09T11:57:32.924Z,8.60
2018-08-09T12:00:01.458Z,9.97
2018-08-09T12:02:30.117Z,8.90
2018-08-09T12:04:58.699Z,9.40
2018-08-09T12:07:27.258Z,9.67
2018-08-09T12:09:55.798Z,8.77
2018-08-09T12:12:24.700Z,9.40
2018-08-09T12:14:53.715Z,9.33
2018-08-09T12:17:22.245Z,8.77
2018-08-09T12:19:51.033Z,8.37
2018-08-09T12:22:19.560Z,9.10
2018-08-09T12:24:48.076Z,8.87
2018-08-09T12:27:16.653Z,8.53
2018-08-09T12:29:45.174Z,8.83
2018-08-09T12:32:13.697Z,8.40
2018-08-09T12:34:42.264Z,9.30
2018-08-09T12:37:10.821Z,9.13
2018-08-09T12:39:39.355Z,8.53
2018-08-09T12:42:07.927Z,10.17
2018-08-09T12:44:36.465Z,9.63
2018-08-09T12:47:05.241Z,11.07
2018-08-09T12:49:33.820Z,8.97
2018-08-09T12:52:02.564Z,9.17
2018-08-09T12:54:31.246Z,9.73
2018-08-09T12:57:00.020Z,9.33
2018-08-09T12:59:28.585Z,9.10
2018-08-09T13:01:57.156Z,9.10
2018-08-09T13:04:26.094Z,7.67
2018-08-09T13:06:55.736Z,8.53
2018-08-09T13:09:24.262Z,9.20
2018-08-09T13:11:52.825Z,9.10
2018-08-09T13:14:21.351Z,8.03
2018-08-09T13:16:49.894Z,8.60
2018-08-09T13:19:18.517Z,8.10
2018-08-09T13:21:47.053Z,8.20
2018-08-09T13:24:15.669Z,8.80
2018-08-09T13:26:44.235Z,8.70
2018-08-09T13:29:12.757Z,7.50
2018-08-09T13:31:41.405Z,8.17
2018-08-09T13:34:10.417Z,8.30
2018-08-09T13:36:39.018Z,8.17
2018-08-09T13:39:10.856Z,7.93
2018-08-09T13:41:39.397Z,7.63
2018-08-09T13:44:08.023Z,8.70
2018-08-09T13:46:36.591Z,9.10
2018-08-09T13:49:05.411Z,9.43
2018-08-09T13:51:33.968Z,8.73
2018-08-09T13:54:02.822Z,7.67
2018-08-09T13:56:31.466Z,8.10
2018-08-09T13:59:00.056Z,12.53
2018-08-09T14:01:28.592Z,8.10
2018-08-09T14:03:57.186Z,7.47
2018-08-09T14:06:49.486Z,7.20
2018-08-09T14:09:19.791Z,7.23
2018-08-09T14:11:48.299Z,7.40
2018-08-09T14:14:16.538Z,7.53
2018-08-09T14:16:45.085Z,7.03
2018-08-09T14:19:13.640Z,6.73
2018-08-09T14:21:42.177Z,7.23
2018-08-09T14:24:11.106Z,7.13
2018-08-09T14:26:40.785Z,6.70
2018-08-09T14:29:10.393Z,7.10
2018-08-09T14:31:39.212Z,7.70
2018-08-09T14:34:07.844Z,7.33
2018-08-09T14:36:36.787Z,7.40
2018-08-09T14:39:08.694Z,7.20
2018-08-09T14:41:38.005Z,6.73
2018-08-09T14:44:07.030Z,6.70
2018-08-09T14:46:35.935Z,6.87
2018-08-09T14:49:04.792Z,7.57
2018-08-09T14:51:33.388Z,10.73
2018-08-09T14:54:02.089Z,7.27
2018-08-09T14:56:30.689Z,12.13
2018-08-09T14:58:59.317Z,9.00
2018-08-09T15:01:29.993Z,34.83
2018-08-09T15:03:58.699Z,8.30
2018-08-09T15:06:27.258Z,6.70
2018-08-09T15:08:55.837Z,8.63
2018-08-09T15:11:24.694Z,6.73
2018-08-09T15:13:53.234Z,7.33
2018-08-09T15:16:21.762Z,10.13
2018-08-09T15:18:50.354Z,9.97
2018-08-09T15:21:18.899Z,7.83
2018-08-09T15:23:47.464Z,42.53
2018-08-09T15:26:16.069Z,11.07
2018-08-09T15:28:44.632Z,11.87
2018-08-09T15:31:13.183Z,11.47
2018-08-09T15:33:41.716Z,9.77
2018-08-09T15:36:10.278Z,9.73
2018-08-09T15:38:38.826Z,9.07
2018-08-09T15:41:07.352Z,10.30
2018-08-09T15:43:35.898Z,12.00
2018-08-09T15:46:04.512Z,12.03
2018-08-09T15:48:33.052Z,14.30
2018-08-09T15:51:01.559Z,10.37
2018-08-09T15:53:30.081Z,11.73
2018-08-09T15:55:58.592Z,13.00
2018-08-09T15:58:27.131Z,7.97
2018-08-09T16:00:55.696Z,9.63
2018-08-09T16:03:24.226Z,10.30
2018-08-09T16:05:52.767Z,10.50
2018-08-09T16:08:21.285Z,9.93
2018-08-09T16:10:49.843Z,9.70
2018-08-09T16:13:18.389Z,7.70
2018-08-09T16:15:46.919Z,8.70
2018-08-09T16:18:15.953Z,7.13
2018-08-09T16:20:44.508Z,7.80
2018-08-09T16:23:13.033Z,7.80
2018-08-09T16:25:41.629Z,8.20
2018-08-09T16:28:10.193Z,8.53
2018-08-09T16:30:38.738Z,9.30
2018-08-09T16:33:07.278Z,8.47
2018-08-09T16:35:35.860Z,8.50
2018-08-09T16:38:04.984Z,8.57
2018-08-09T16:40:33.516Z,7.93
2018-08-09T16:43:02.246Z,7.97
2018-08-09T16:45:30.880Z,8.13
2018-08-09T16:47:59.408Z,7.97
2018-08-09T16:50:27.936Z,6.70
2018-08-09T16:52:57.320Z,8.37
2018-08-09T16:55:26.508Z,7.80
2018-08-09T16:57:55.042Z,7.83
2018-08-09T17:00:24.529Z,7.23
2018-08-09T17:02:53.988Z,7.60
2018-08-09T17:05:24.843Z,7.57
2018-08-09T17:07:53.658Z,8.63
2018-08-09T17:10:23.536Z,7.60
2018-08-09T17:12:52.210Z,7.90
2018-08-09T17:15:23.750Z,7.57
2018-08-09T17:17:52.455Z,7.40
2018-08-09T17:20:25.393Z,6.73
2018-08-09T17:22:54.074Z,7.13
2018-08-09T17:25:22.650Z,6.77
2018-08-09T17:27:51.504Z,6.17
2018-08-09T17:30:22.589Z,6.63
2018-08-09T17:32:52.213Z,6.30
2018-08-09T17:35:21.043Z,7.70
2018-08-09T17:37:49.819Z,7.27
2018-08-09T17:40:34.093Z,7.00
2018-08-09T17:43:03.485Z,5.83
2018-08-09T17:45:33.404Z,5.47
2018-08-09T17:48:02.598Z,5.73
2018-08-09T17:50:31.139Z,5.90
2018-08-09T17:53:02.033Z,6.80
2018-08-09T17:55:31.109Z,5.20
2018-08-09T17:57:59.700Z,6.77
2018-08-09T18:00:29.628Z,5.10
2018-08-09T18:02:58.140Z,6.00
2018-08-09T18:05:26.684Z,5.17
2018-08-09T18:07:55.808Z,5.40
2018-08-09T18:10:26.558Z,4.57
2018-08-09T18:12:55.200Z,4.40
2018-08-09T18:15:24.812Z,4.20
2018-08-09T18:17:53.454Z,4.17
2018-08-09T18:20:23.849Z,4.13
2018-08-09T18:22:52.414Z,4.17
2018-08-09T18:25:21.007Z,3.83
2018-08-09T18:27:49.546Z,3.80
2018-08-09T18:30:19.218Z,4.00
2018-08-09T18:32:47.791Z,3.57
2018-08-09T18:35:17.421Z,4.20
2018-08-09T18:37:46.878Z,3.43
2018-08-09T18:40:18.154Z,3.50
2018-08-09T18:42:47.166Z,4.00
2018-08-09T18:45:15.788Z,3.67
2018-08-09T18:47:44.365Z,3.90
2018-08-09T18:50:18.309Z,4.00
2018-08-09T18:52:47.017Z,4.40
2018-08-09T18:55:16.740Z,4.87
2018-08-09T18:57:45.277Z,3.83
2018-08-09T19:00:18.100Z,4.90
2018-08-09T19:02:47.171Z,4.77
2018-08-09T19:05:15.942Z,4.47
2018-08-09T19:07:44.624Z,3.70
2018-08-09T19:10:16.225Z,4.73
2018-08-09T19:12:44.814Z,4.30
2018-08-09T19:15:18.803Z,3.60
2018-08-09T19:17:48.660Z,4.77
2018-08-09T19:20:23.289Z,4.27
2018-08-09T19:22:52.273Z,4.43
2018-08-09T19:25:20.798Z,4.20
2018-08-09T19:27:49.336Z,3.80
2018-08-09T19:30:22.637Z,4.47
2018-08-09T19:32:51.411Z,4.03
2018-08-09T19:35:20.688Z,4.10
2018-08-09T19:37:49.251Z,4.13
2018-08-09T19:40:19.625Z,4.40
2018-08-09T19:42:48.233Z,3.83
2018-08-09T19:45:17.857Z,4.53
2018-08-09T19:47:46.392Z,4.23
2018-08-09T19:50:16.755Z,4.70
2018-08-09T19:52:46.585Z,4.20
2018-08-09T19:55:16.903Z,3.90
2018-08-09T19:57:46.962Z,4.80
2018-08-09T20:00:20.284Z,3.70
2018-08-09T20:02:49.244Z,3.90
2018-08-09T20:05:17.901Z,4.73
2018-08-09T20:07:46.500Z,4.73
2018-08-09T20:10:15.464Z,4.67
2018-08-09T20:12:46.236Z,4.30
2018-08-09T20:15:20.148Z,4.40
2018-08-09T20:17:48.834Z,3.83
2018-08-09T20:20:18.916Z,4.63
2018-08-09T20:22:47.497Z,4.73
2018-08-09T20:25:16.296Z,4.57
2018-08-09T20:27:45.481Z,4.10
2018-08-09T20:30:16.469Z,4.90
2018-08-09T20:32:46.151Z,4.00
2018-08-09T20:35:16.509Z,4.40
2018-08-09T20:37:45.910Z,4.97
2018-08-09T20:40:15.077Z,5.03
2018-08-09T20:42:44.280Z,5.17
2018-08-09T20:45:14.188Z,4.50
2018-08-09T20:47:42.718Z,4.50
2018-08-09T20:50:13.579Z,4.87
2018-08-09T20:52:42.910Z,5.00
2018-08-09T20:55:11.663Z,4.53
2018-08-09T20:57:41.103Z,4.70
2018-08-09T21:00:13.091Z,4.43
2018-08-09T21:02:41.731Z,4.83
2018-08-09T21:05:15.345Z,4.27
2018-08-09T21:07:43.881Z,4.67
2018-08-09T21:10:12.416Z,4.10
2018-08-09T21:12:40.986Z,4.60
2018-08-09T21:15:09.528Z,4.40
2018-08-09T21:17:38.093Z,4.17
2018-08-09T21:20:06.932Z,4.37
2018-08-09T21:22:35.444Z,4.40
2018-08-09T21:25:04.788Z,4.90
2018-08-09T21:27:33.285Z,4.17
2018-08-09T21:30:01.815Z,3.93
2018-08-09T21:32:30.385Z,4.30
2018-08-09T21:34:58.905Z,4.60
2018-08-09T21:37:27.416Z,5.00
2018-08-09T21:39:57.215Z,4.30
2018-08-09T21:42:25.866Z,4.87
2018-08-09T21:44:57.387Z,3.83
2018-08-09T21:47:28.189Z,4.03
2018-08-09T21:49:57.939Z,4.37
2018-08-09T21:52:27.318Z,3.90
2018-08-09T21:54:55.944Z,3.83
2018-08-09T21:57:24.500Z,4.10
2018-08-09T21:59:54.837Z,3.83
2018-08-09T22:02:23.341Z,4.03
2018-08-09T22:05:00.834Z,3.67
2018-08-09T22:08:35.426Z,3.90
2018-08-09T22:11:09.481Z,4.00
2018-08-09T22:13:43.356Z,3.20
2018-08-09T22:16:17.233Z,3.33
2018-08-09T22:19:48.923Z,3.80
2018-08-09T22:22:22.158Z,3.80
2018-08-09T22:24:50.899Z,3.60
2018-08-09T22:27:20.358Z,3.77
2018-08-09T22:29:49.042Z,3.70
2018-08-09T22:32:17.632Z,3.10
2018-08-09T22:34:46.303Z,3.40
2018-08-09T22:37:14.982Z,3.50
2018-08-09T22:39:43.759Z,4.20
2018-08-09T22:42:12.280Z,3.20
2018-08-09T22:44:40.825Z,3.33
2018-08-09T22:47:09.377Z,2.93
2018-08-09T22:49:37.905Z,3.00
2018-08-09T22:52:06.504Z,3.60
2018-08-09T22:54:35.142Z,3.33
2018-08-09T22:57:03.700Z,2.90
2018-08-09T22:59:32.284Z,3.80
2018-08-09T23:02:00.884Z,3.57
2018-08-09T23:04:29.436Z,3.10
2018-08-09T23:06:58.044Z,3.37
2018-08-09T23:09:26.704Z,3.03
2018-08-09T23:11:55.381Z,3.20
2018-08-09T23:14:23.947Z,3.17
2018-08-09T23:16:52.599Z,3.10
2018-08-09T23:19:21.128Z,3.57
2018-08-09T23:21:49.667Z,3.30
2018-08-09T23:24:18.246Z,3.03
2018-08-09T23:26:46.819Z,2.83
2018-08-09T23:29:15.353Z,3.00
2018-08-09T23:31:43.922Z,2.87
2018-08-09T23:34:12.466Z,2.60
2018-08-09T23:36:41.041Z,2.73
2018-08-09T23:39:11.859Z,2.57
2018-08-09T23:41:40.440Z,2.67
2018-08-09T23:44:09.001Z,2.60
2018-08-09T23:46:37.624Z,3.13
2018-08-09T23:49:06.156Z,2.70
2018-08-09T23:51:34.754Z,3.57
2018-08-09T23:54:04.041Z,3.23
2018-08-09T23:56:32.574Z,2.20
2018-08-09T23:59:01.129Z,2.53
